sensor_id;sensor_type;location;lat;lon;timestamp;pressure;altitude;pressure_sealevel;temperature;humidity
16595;BME280;8410;52.532;13.336;2024-03-02T00:00:33;100100.66;;;18.80;55.84
16595;BME280;8410;52.532;13.336;2024-03-02T00:03:00;100097.00;;;18.86;56.08
16595;BME280;8410;52.532;13.336;2024-03-02T00:05:28;100099.03;;;19.03;55.62
16595;BME280;8410;52.532;13.336;2024-03-02T00:07:57;100099.63;;;19.11;54.97
16595;BME280;8410;52.532;13.336;2024-03-02T00:10:27;100095.38;;;18.82;55.50
16595;BME280;8410;52.532;13.336;2024-03-02T00:13:01;100095.84;;;18.66;56.71
16595;BME280;8410;52.532;13.336;2024-03-02T00:15:47;100094.97;;;18.94;55.24
16595;BME280;8410;52.532;13.336;2024-03-02T00:18:18;100089.13;;;18.87;55.60
16595;BME280;8410;52.532;13.336;2024-03-02T00:20:46;100098.75;;;18.27;56.92
16595;BME280;8410;52.532;13.336;2024-03-02T00:23:16;100099.03;;;18.18;56.53
16595;BME280;8410;52.532;13.336;2024-03-02T00:25:46;100080.47;;;18.57;56.48
16595;BME280;8410;52.532;13.336;2024-03-02T00:28:17;100089.56;;;19.00;55.55
16595;BME280;8410;52.532;13.336;2024-03-02T00:30:52;100086.00;;;18.76;56.20
16595;BME280;8410;52.532;13.336;2024-03-02T00:33:22;100081.59;;;18.78;56.35
16595;BME280;8410;52.532;13.336;2024-03-02T00:35:50;100079.72;;;19.08;55.66
16595;BME280;8410;52.532;13.336;2024-03-02T00:38:19;100079.53;;;18.88;55.88
16595;BME280;8410;52.532;13.336;2024-03-02T00:40:47;100076.81;;;19.17;55.51
16595;BME280;8410;52.532;13.336;2024-03-02T00:43:43;100080.97;;;18.98;55.95
16595;BME280;8410;52.532;13.336;2024-03-02T00:46:17;100082.84;;;18.93;55.69
16595;BME280;8410;52.532;13.336;2024-03-02T00:48:50;100073.72;;;18.80;56.18
16595;BME280;8410;52.532;13.336;2024-03-02T00:51:18;100071.41;;;18.97;55.87
16595;BME280;8410;52.532;13.336;2024-03-02T00:53:47;100071.63;;;18.91;55.89
16595;BME280;8410;52.532;13.336;2024-03-02T00:56:15;100082.25;;;18.85;55.74
16595;BME280;8410;52.532;13.336;2024-03-02T00:58:43;100079.34;;;18.94;55.68
16595;BME280;8410;52.532;13.336;2024-03-02T01:01:11;100084.34;;;19.00;55.85
16595;BME280;8410;52.532;13.336;2024-03-02T01:03:38;100076.13;;;18.86;55.84
16595;BME280;8410;52.532;13.336;2024-03-02T01:06:08;100084.50;;;18.67;56.02
16595;BME280;8410;52.532;13.336;2024-03-02T01:08:35;100085.25;;;18.71;56.51
16595;BME280;8410;52.532;13.336;2024-03-02T01:11:04;100087.53;;;18.82;55.67
16595;BME280;8410;52.532;13.336;2024-03-02T01:13:32;100083.44;;;18.75;56.05
16595;BME280;8410;52.532;13.336;2024-03-02T01:16:00;100076.97;;;18.58;56.43
16595;BME280;8410;52.532;13.336;2024-03-02T01:18:28;100066.88;;;18.76;56.49
16595;BME280;8410;52.532;13.336;2024-03-02T01:20:57;100067.97;;;18.68;55.74
16595;BME280;8410;52.532;13.336;2024-03-02T01:23:24;100069.56;;;18.72;56.05
16595;BME280;8410;52.532;13.336;2024-03-02T01:25:52;100069.56;;;18.72;56.34
16595;BME280;8410;52.532;13.336;2024-03-02T01:28:21;100070.28;;;18.79;56.36
16595;BME280;8410;52.532;13.336;2024-03-02T01:30:48;100068.41;;;18.83;56.04
16595;BME280;8410;52.532;13.336;2024-03-02T01:33:16;100062.59;;;18.75;56.34
16595;BME280;8410;52.532;13.336;2024-03-02T01:35:44;100052.50;;;18.62;56.71
16595;BME280;8410;52.532;13.336;2024-03-02T01:38:12;100058.19;;;18.77;56.43
16595;BME280;8410;52.532;13.336;2024-03-02T01:40:39;100064.06;;;18.82;56.68
16595;BME280;8410;52.532;13.336;2024-03-02T01:43:07;100057.91;;;18.56;56.57
16595;BME280;8410;52.532;13.336;2024-03-02T01:45:36;100047.53;;;18.55;56.99
16595;BME280;8410;52.532;13.336;2024-03-02T01:48:05;100045.19;;;18.73;57.36
16595;BME280;8410;52.532;13.336;2024-03-02T01:50:33;100046.25;;;18.68;57.23
16595;BME280;8410;52.532;13.336;2024-03-02T01:53:02;100043.41;;;18.76;56.93
16595;BME280;8410;52.532;13.336;2024-03-02T01:55:30;100046.03;;;18.76;56.76
16595;BME280;8410;52.532;13.336;2024-03-02T01:57:57;100038.06;;;18.80;57.14
16595;BME280;8410;52.532;13.336;2024-03-02T02:00:26;100034.41;;;18.86;57.40
16595;BME280;8410;52.532;13.336;2024-03-02T02:02:55;100037.44;;;18.72;58.13
16595;BME280;8410;52.532;13.336;2024-03-02T02:05:24;100030.28;;;18.79;57.82
16595;BME280;8410;52.532;13.336;2024-03-02T02:07:52;100027.28;;;18.91;57.44
16595;BME280;8410;52.532;13.336;2024-03-02T02:10:19;100029.50;;;18.77;58.21
16595;BME280;8410;52.532;13.336;2024-03-02T02:12:46;100026.16;;;18.71;58.29
16595;BME280;8410;52.532;13.336;2024-03-02T02:15:27;100018.00;;;18.54;58.75
16595;BME280;8410;52.532;13.336;2024-03-02T02:17:56;100020.97;;;18.70;58.50
16595;BME280;8410;52.532;13.336;2024-03-02T02:20:24;100011.41;;;18.97;57.92
16595;BME280;8410;52.532;13.336;2024-03-02T02:22:58;100014.59;;;18.80;58.43
16595;BME280;8410;52.532;13.336;2024-03-02T02:25:25;100008.63;;;18.77;58.31
16595;BME280;8410;52.532;13.336;2024-03-02T02:27:54;100008.41;;;18.56;59.14
16595;BME280;8410;52.532;13.336;2024-03-02T02:30:23;100013.28;;;18.65;58.93
16595;BME280;8410;52.532;13.336;2024-03-02T02:32:51;100015.63;;;18.46;59.80
16595;BME280;8410;52.532;13.336;2024-03-02T02:35:19;100009.47;;;18.49;59.59
16595;BME280;8410;52.532;13.336;2024-03-02T02:37:47;100009.47;;;18.49;59.42
16595;BME280;8410;52.532;13.336;2024-03-02T02:40:17;100009.72;;;18.41;59.65
16595;BME280;8410;52.532;13.336;2024-03-02T02:42:45;100009.47;;;18.49;59.39
16595;BME280;8410;52.532;13.336;2024-03-02T02:45:13;100011.28;;;18.47;59.48
16595;BME280;8410;52.532;13.336;2024-03-02T02:47:41;100013.81;;;18.50;59.68
16595;BME280;8410;52.532;13.336;2024-03-02T02:50:10;100016.41;;;18.50;59.50
16595;BME280;8410;52.532;13.336;2024-03-02T02:52:39;100022.34;;;18.55;59.94
16595;BME280;8410;52.532;13.336;2024-03-02T02:55:08;100012.78;;;18.54;59.58
16595;BME280;8410;52.532;13.336;2024-03-02T02:57:39;100011.28;;;18.75;59.62
16595;BME280;8410;52.532;13.336;2024-03-02T03:00:10;100015.16;;;18.90;59.85
16595;BME280;8410;52.532;13.336;2024-03-02T03:02:41;100018.03;;;19.07;58.99
16595;BME280;8410;52.532;13.336;2024-03-02T03:05:10;100020.50;;;19.12;58.87
16595;BME280;8410;52.532;13.336;2024-03-02T03:07:39;100018.97;;;18.80;60.06
16595;BME280;8410;52.532;13.336;2024-03-02T03:10:07;100022.28;;;19.10;60.19
16595;BME280;8410;52.532;13.336;2024-03-02T03:12:35;100024.28;;;18.77;61.38
16595;BME280;8410;52.532;13.336;2024-03-02T03:15:05;100016.94;;;18.88;61.29
16595;BME280;8410;52.532;13.336;2024-03-02T03:17:34;100020.56;;;18.84;61.08
16595;BME280;8410;52.532;13.336;2024-03-02T03:20:02;100016.00;;;18.62;61.37
16595;BME280;8410;52.532;13.336;2024-03-02T03:22:30;100009.16;;;18.86;61.07
16595;BME280;8410;52.532;13.336;2024-03-02T03:24:58;100019.19;;;18.99;60.53
16595;BME280;8410;52.532;13.336;2024-03-02T03:27:26;100019.25;;;18.97;60.27
16595;BME280;8410;52.532;13.336;2024-03-02T03:29:54;100019.94;;;19.02;60.80
16595;BME280;8410;52.532;13.336;2024-03-02T03:32:23;100019.69;;;19.10;60.59
16595;BME280;8410;52.532;13.336;2024-03-02T03:34:51;100020.75;;;19.04;60.24
16595;BME280;8410;52.532;13.336;2024-03-02T03:37:18;100021.81;;;19.24;59.70
16595;BME280;8410;52.532;13.336;2024-03-02T03:39:46;100016.34;;;19.06;60.54
16595;BME280;8410;52.532;13.336;2024-03-02T03:42:13;100015.38;;;19.09;60.35
16595;BME280;8410;52.532;13.336;2024-03-02T03:44:41;100010.09;;;19.10;60.31
16595;BME280;8410;52.532;13.336;2024-03-02T03:47:08;100010.63;;;19.20;59.85
16595;BME280;8410;52.532;13.336;2024-03-02T03:49:37;100015.84;;;18.40;61.62
16595;BME280;8410;52.532;13.336;2024-03-02T03:52:05;100015.66;;;18.75;60.99
16595;BME280;8410;52.532;13.336;2024-03-02T03:54:32;100008.63;;;19.03;60.26
16595;BME280;8410;52.532;13.336;2024-03-02T03:57:00;100008.53;;;19.05;60.32
16595;BME280;8410;52.532;13.336;2024-03-02T03:59:27;100012.72;;;18.84;61.14
16595;BME280;8410;52.532;13.336;2024-03-02T04:01:55;100012.03;;;18.79;61.25
16595;BME280;8410;52.532;13.336;2024-03-02T04:04:22;100012.59;;;18.88;61.08
16595;BME280;8410;52.532;13.336;2024-03-02T04:06:51;100014.19;;;18.92;60.35
16595;BME280;8410;52.532;13.336;2024-03-02T04:09:19;100018.25;;;19.01;61.16
16595;BME280;8410;52.532;13.336;2024-03-02T04:11:46;100016.13;;;19.12;60.59
16595;BME280;8410;52.532;13.336;2024-03-02T04:14:14;100023.25;;;19.07;60.92
16595;BME280;8410;52.532;13.336;2024-03-02T04:16:41;100028.16;;;18.63;61.98
16595;BME280;8410;52.532;13.336;2024-03-02T04:19:08;100025.75;;;19.10;60.63
16595;BME280;8410;52.532;13.336;2024-03-02T04:21:36;100027.13;;;19.21;60.33
16595;BME280;8410;52.532;13.336;2024-03-02T04:24:05;100031.34;;;19.25;60.26
16595;BME280;8410;52.532;13.336;2024-03-02T04:26:32;100034.16;;;19.18;60.52
16595;BME280;8410;52.532;13.336;2024-03-02T04:29:00;100033.47;;;19.13;60.69
16595;BME280;8410;52.532;13.336;2024-03-02T04:31:28;100033.91;;;19.01;60.26
16595;BME280;8410;52.532;13.336;2024-03-02T04:33:56;100037.22;;;19.06;60.76
16595;BME280;8410;52.532;13.336;2024-03-02T04:36:23;100035.28;;;19.11;60.61
16595;BME280;8410;52.532;13.336;2024-03-02T04:38:51;100032.09;;;19.03;60.43
16595;BME280;8410;52.532;13.336;2024-03-02T04:41:19;100040.06;;;19.24;60.51
16595;BME280;8410;52.532;13.336;2024-03-02T04:43:47;100036.97;;;19.37;59.89
16595;BME280;8410;52.532;13.336;2024-03-02T04:46:14;100041.34;;;19.37;59.89
16595;BME280;8410;52.532;13.336;2024-03-02T04:48:42;100035.06;;;19.43;59.65
16595;BME280;8410;52.532;13.336;2024-03-02T04:51:10;100042.00;;;19.44;59.81
16595;BME280;8410;52.532;13.336;2024-03-02T04:53:37;100039.97;;;19.27;59.64
16595;BME280;8410;52.532;13.336;2024-03-02T04:56:06;100042.75;;;19.22;60.49
16595;BME280;8410;52.532;13.336;2024-03-02T04:59:11;100049.66;;;19.23;60.26
16595;BME280;8410;52.532;13.336;2024-03-02T05:01:38;100055.59;;;19.28;60.38
16595;BME280;8410;52.532;13.336;2024-03-02T05:04:06;100059.25;;;19.23;60.24
16595;BME280;8410;52.532;13.336;2024-03-02T05:06:34;100063.84;;;19.41;60.30
16595;BME280;8410;52.532;13.336;2024-03-02T05:09:01;100056.78;;;19.43;60.17
16595;BME280;8410;52.532;13.336;2024-03-02T05:11:29;100059.03;;;19.54;59.48
16595;BME280;8410;52.532;13.336;2024-03-02T05:14:16;100072.44;;;19.43;59.04
16595;BME280;8410;52.532;13.336;2024-03-02T05:16:43;100065.88;;;19.33;60.27
16595;BME280;8410;52.532;13.336;2024-03-02T05:19:11;100071.69;;;19.41;59.89
16595;BME280;8410;52.532;13.336;2024-03-02T05:21:38;100074.19;;;19.44;60.06
16595;BME280;8410;52.532;13.336;2024-03-02T05:24:06;100072.41;;;19.45;59.72
16595;BME280;8410;52.532;13.336;2024-03-02T05:26:34;100071.56;;;19.44;59.97
16595;BME280;8410;52.532;13.336;2024-03-02T05:29:01;100080.78;;;19.54;59.93
16595;BME280;8410;52.532;13.336;2024-03-02T05:31:30;100080.69;;;19.57;59.08
16595;BME280;8410;52.532;13.336;2024-03-02T05:33:58;100078.56;;;19.69;59.05
16595;BME280;8410;52.532;13.336;2024-03-02T05:36:26;100081.44;;;19.86;58.97
16595;BME280;8410;52.532;13.336;2024-03-02T05:38:53;100086.97;;;19.77;58.87
16595;BME280;8410;52.532;13.336;2024-03-02T05:41:21;100093.44;;;19.90;58.67
16595;BME280;8410;52.532;13.336;2024-03-02T05:43:48;100091.19;;;19.81;58.96
16595;BME280;8410;52.532;13.336;2024-03-02T05:46:16;100090.88;;;19.64;59.31
16595;BME280;8410;52.532;13.336;2024-03-02T05:48:44;100099.63;;;19.37;59.88
16595;BME280;8410;52.532;13.336;2024-03-02T05:51:12;100100.56;;;19.10;61.20
16595;BME280;8410;52.532;13.336;2024-03-02T05:53:40;100102.59;;;19.27;60.30
16595;BME280;8410;52.532;13.336;2024-03-02T05:56:08;100109.06;;;19.16;60.17
16595;BME280;8410;52.532;13.336;2024-03-02T05:58:35;100112.97;;;19.03;60.44
16595;BME280;8410;52.532;13.336;2024-03-02T06:01:16;100124.88;;;18.54;60.65
16595;BME280;8410;52.532;13.336;2024-03-02T06:03:46;100117.16;;;19.07;60.64
16595;BME280;8410;52.532;13.336;2024-03-02T06:06:13;100122.94;;;19.17;60.09
16595;BME280;8410;52.532;13.336;2024-03-02T06:08:41;100116.94;;;19.13;60.33
16595;BME280;8410;52.532;13.336;2024-03-02T06:11:08;100120.16;;;19.22;59.94
16595;BME280;8410;52.532;13.336;2024-03-02T06:13:36;100122.34;;;19.09;60.09
16595;BME280;8410;52.532;13.336;2024-03-02T06:16:04;100122.53;;;19.29;59.79
16595;BME280;8410;52.532;13.336;2024-03-02T06:18:32;100122.03;;;19.43;59.20
16595;BME280;8410;52.532;13.336;2024-03-02T06:21:01;100122.75;;;19.48;59.01
16595;BME280;8410;52.532;13.336;2024-03-02T06:23:28;100122.78;;;19.22;59.71
16595;BME280;8410;52.532;13.336;2024-03-02T06:25:56;100118.47;;;19.21;59.75
16595;BME280;8410;52.532;13.336;2024-03-02T06:28:24;100115.72;;;18.99;59.48
16595;BME280;8410;52.532;13.336;2024-03-02T06:30:51;100120.88;;;19.00;59.69
16595;BME280;8410;52.532;13.336;2024-03-02T06:33:19;100115.78;;;18.67;59.91
16595;BME280;8410;52.532;13.336;2024-03-02T06:35:46;100111.81;;;18.84;60.40
16595;BME280;8410;52.532;13.336;2024-03-02T06:38:16;100111.22;;;18.76;60.27
16595;BME280;8410;52.532;13.336;2024-03-02T06:40:44;100113.94;;;18.43;61.29
16595;BME280;8410;52.532;13.336;2024-03-02T06:43:11;100113.81;;;18.76;59.83
16595;BME280;8410;52.532;13.336;2024-03-02T06:45:39;100119.19;;;18.69;60.26
16595;BME280;8410;52.532;13.336;2024-03-02T06:48:07;100118.31;;;18.99;59.95
16595;BME280;8410;52.532;13.336;2024-03-02T06:50:34;100124.28;;;19.02;59.90
16595;BME280;8410;52.532;13.336;2024-03-02T06:53:02;100119.91;;;19.03;59.60
16595;BME280;8410;52.532;13.336;2024-03-02T06:55:32;100123.81;;;19.16;59.44
16595;BME280;8410;52.532;13.336;2024-03-02T06:57:59;100121.47;;;19.35;58.98
16595;BME280;8410;52.532;13.336;2024-03-02T07:00:27;100125.69;;;19.12;58.81
16595;BME280;8410;52.532;13.336;2024-03-02T07:02:55;100129.03;;;18.89;59.65
16595;BME280;8410;52.532;13.336;2024-03-02T07:05:23;100138.25;;;19.01;59.84
16595;BME280;8410;52.532;13.336;2024-03-02T07:07:50;100141.13;;;18.92;59.33
16595;BME280;8410;52.532;13.336;2024-03-02T07:10:18;100153.38;;;18.90;59.95
16595;BME280;8410;52.532;13.336;2024-03-02T07:12:46;100146.94;;;19.00;59.89
16595;BME280;8410;52.532;13.336;2024-03-02T07:15:14;100146.88;;;19.03;59.80
16595;BME280;8410;52.532;13.336;2024-03-02T07:18:21;100146.78;;;19.06;59.81
16595;BME280;8410;52.532;13.336;2024-03-02T07:20:48;100141.56;;;19.06;59.89
16595;BME280;8410;52.532;13.336;2024-03-02T07:23:16;100141.81;;;19.25;58.92
16595;BME280;8410;52.532;13.336;2024-03-02T07:25:43;100130.94;;;18.84;59.79
16595;BME280;8410;52.532;13.336;2024-03-02T07:28:15;100145.91;;;19.06;59.58
16595;BME280;8410;52.532;13.336;2024-03-02T07:30:43;100141.72;;;19.00;60.10
16595;BME280;8410;52.532;13.336;2024-03-02T07:33:10;100150.34;;;19.30;59.25
16595;BME280;8410;52.532;13.336;2024-03-02T07:35:38;100153.84;;;19.29;59.36
16595;BME280;8410;52.532;13.336;2024-03-02T07:38:05;100162.94;;;19.44;58.89
16595;BME280;8410;52.532;13.336;2024-03-02T07:40:33;100165.56;;;19.43;58.87
16595;BME280;8410;52.532;13.336;2024-03-02T07:43:00;100177.31;;;19.56;58.86
16595;BME280;8410;52.532;13.336;2024-03-02T07:45:29;100175.56;;;19.56;58.57
16595;BME280;8410;52.532;13.336;2024-03-02T07:47:57;100185.13;;;19.57;58.31
16595;BME280;8410;52.532;13.336;2024-03-02T07:50:24;100182.22;;;19.67;57.69
16595;BME280;8410;52.532;13.336;2024-03-02T07:52:52;100188.41;;;19.63;58.21
16595;BME280;8410;52.532;13.336;2024-03-02T07:55:19;100196.66;;;19.77;57.88
16595;BME280;8410;52.532;13.336;2024-03-02T07:57:47;100194.63;;;19.58;58.31
16595;BME280;8410;52.532;13.336;2024-03-02T08:00:15;100186.81;;;19.58;58.16
16595;BME280;8410;52.532;13.336;2024-03-02T08:02:44;100200.88;;;19.54;58.40
16595;BME280;8410;52.532;13.336;2024-03-02T08:05:12;100202.72;;;19.77;57.56
16595;BME280;8410;52.532;13.336;2024-03-02T08:07:39;100199.38;;;19.74;58.05
16595;BME280;8410;52.532;13.336;2024-03-02T08:10:08;100206.75;;;19.34;58.15
16595;BME280;8410;52.532;13.336;2024-03-02T08:12:35;100203.59;;;19.25;59.06
16595;BME280;8410;52.532;13.336;2024-03-02T08:15:04;100204.69;;;19.44;58.27
16595;BME280;8410;52.532;13.336;2024-03-02T08:17:31;100198.69;;;19.69;57.47
16595;BME280;8410;52.532;13.336;2024-03-02T08:20:06;100199.88;;;19.85;57.47
16595;BME280;8410;52.532;13.336;2024-03-02T08:22:34;100208.81;;;19.78;57.32
16595;BME280;8410;52.532;13.336;2024-03-02T08:25:02;100217.56;;;19.77;57.19
16595;BME280;8410;52.532;13.336;2024-03-02T08:27:30;100223.47;;;19.82;57.30
16595;BME280;8410;52.532;13.336;2024-03-02T08:29:58;100217.88;;;19.68;57.68
16595;BME280;8410;52.532;13.336;2024-03-02T08:32:26;100212.44;;;19.74;56.94
16595;BME280;8410;52.532;13.336;2024-03-02T08:34:53;100224.53;;;19.22;58.21
16595;BME280;8410;52.532;13.336;2024-03-02T08:37:22;100217.34;;;19.83;56.85
16595;BME280;8410;52.532;13.336;2024-03-02T08:39:50;100216.03;;;19.70;57.24
16595;BME280;8410;52.532;13.336;2024-03-02T08:42:17;100219.94;;;19.56;57.29
16595;BME280;8410;52.532;13.336;2024-03-02T08:44:45;100221.56;;;19.34;58.62
16595;BME280;8410;52.532;13.336;2024-03-02T08:47:12;100219.66;;;19.39;57.98
16595;BME280;8410;52.532;13.336;2024-03-02T08:49:40;100223.69;;;19.49;57.81
16595;BME280;8410;52.532;13.336;2024-03-02T08:52:07;100226.19;;;19.79;57.45
16595;BME280;8410;52.532;13.336;2024-03-02T08:54:36;100224.69;;;19.72;56.90
16595;BME280;8410;52.532;13.336;2024-03-02T08:57:05;100227.38;;;19.95;57.15
16595;BME280;8410;52.532;13.336;2024-03-02T08:59:33;100226.19;;;19.79;57.56
16595;BME280;8410;52.532;13.336;2024-03-02T09:02:01;100234.41;;;19.40;58.86
16595;BME280;8410;52.532;13.336;2024-03-02T09:04:29;100234.41;;;19.93;60.90
16595;BME280;8410;52.532;13.336;2024-03-02T09:07:00;100229.53;;;20.81;58.80
16595;BME280;8410;52.532;13.336;2024-03-02T09:09:28;100234.81;;;21.25;60.75
16595;BME280;8410;52.532;13.336;2024-03-02T09:11:59;100227.69;;;21.51;56.16
16595;BME280;8410;52.532;13.336;2024-03-02T09:14:27;100239.16;;;21.69;56.54
16595;BME280;8410;52.532;13.336;2024-03-02T09:16:54;100235.25;;;21.79;55.03
16595;BME280;8410;52.532;13.336;2024-03-02T09:19:22;100244.69;;;21.63;55.76
16595;BME280;8410;52.532;13.336;2024-03-02T09:21:50;100249.75;;;21.22;56.52
16595;BME280;8410;52.532;13.336;2024-03-02T09:24:17;100244.09;;;21.97;54.33
16595;BME280;8410;52.532;13.336;2024-03-02T09:26:45;100251.38;;;21.48;54.52
16595;BME280;8410;52.532;13.336;2024-03-02T09:29:14;100255.56;;;20.84;57.75
16595;BME280;8410;52.532;13.336;2024-03-02T09:31:42;100248.31;;;21.58;54.16
16595;BME280;8410;52.532;13.336;2024-03-02T09:34:09;100254.41;;;21.59;56.18
16595;BME280;8410;52.532;13.336;2024-03-02T09:36:37;100244.69;;;21.63;55.48
16595;BME280;8410;52.532;13.336;2024-03-02T09:39:07;100248.06;;;21.65;55.08
16595;BME280;8410;52.532;13.336;2024-03-02T09:41:36;100250.84;;;21.40;55.32
16595;BME280;8410;52.532;13.336;2024-03-02T09:44:04;100249.09;;;20.71;54.34
16595;BME280;8410;52.532;13.336;2024-03-02T09:46:33;100245.50;;;21.19;56.65
16595;BME280;8410;52.532;13.336;2024-03-02T09:49:02;100242.00;;;21.85;53.30
16595;BME280;8410;52.532;13.336;2024-03-02T09:51:31;100243.88;;;21.81;51.78
16595;BME280;8410;52.532;13.336;2024-03-02T09:54:00;100236.81;;;22.03;53.82
16595;BME280;8410;52.532;13.336;2024-03-02T09:56:43;100240.22;;;22.46;50.79
16595;BME280;8410;52.532;13.336;2024-03-02T09:59:11;100238.59;;;22.23;51.93
16595;BME280;8410;52.532;13.336;2024-03-02T10:01:55;100238.16;;;22.53;51.27
16595;BME280;8410;52.532;13.336;2024-03-02T10:04:24;100234.00;;;21.88;52.89
16595;BME280;8410;52.532;13.336;2024-03-02T10:07:09;100232.19;;;22.31;51.88
16595;BME280;8410;52.532;13.336;2024-03-02T10:09:38;100238.94;;;22.55;50.59
16595;BME280;8410;52.532;13.336;2024-03-02T10:12:07;100238.47;;;22.06;51.72
16595;BME280;8410;52.532;13.336;2024-03-02T10:14:34;100237.19;;;21.94;51.60
16595;BME280;8410;52.532;13.336;2024-03-02T10:17:05;100236.59;;;22.49;52.80
16595;BME280;8410;52.532;13.336;2024-03-02T10:19:33;100239.03;;;23.10;51.73
16595;BME280;8410;52.532;13.336;2024-03-02T10:22:03;100231.81;;;23.16;49.84
16595;BME280;8410;52.532;13.336;2024-03-02T10:24:36;100238.03;;;22.75;49.26
16595;BME280;8410;52.532;13.336;2024-03-02T10:27:09;100239.91;;;22.34;50.23
16595;BME280;8410;52.532;13.336;2024-03-02T10:29:40;100248.44;;;21.33;50.62
16595;BME280;8410;52.532;13.336;2024-03-02T10:32:12;100243.34;;;21.30;52.45
16595;BME280;8410;52.532;13.336;2024-03-02T10:34:40;100242.91;;;21.84;51.71
16595;BME280;8410;52.532;13.336;2024-03-02T10:37:08;100232.19;;;21.47;52.50
16595;BME280;8410;52.532;13.336;2024-03-02T10:39:37;100233.50;;;22.00;51.12
16595;BME280;8410;52.532;13.336;2024-03-02T10:42:06;100235.31;;;21.98;51.20
16595;BME280;8410;52.532;13.336;2024-03-02T10:44:34;100239.22;;;21.47;50.96
16595;BME280;8410;52.532;13.336;2024-03-02T10:47:04;100246.16;;;20.32;53.38
16595;BME280;8410;52.532;13.336;2024-03-02T10:49:33;100239.41;;;20.97;53.64
16595;BME280;8410;52.532;13.336;2024-03-02T10:52:01;100228.16;;;21.61;52.15
16595;BME280;8410;52.532;13.336;2024-03-02T10:54:29;100223.50;;;21.67;51.63
16595;BME280;8410;52.532;13.336;2024-03-02T10:57:04;100232.56;;;22.01;50.98
16595;BME280;8410;52.532;13.336;2024-03-02T10:59:33;100239.72;;;21.97;50.76
16595;BME280;8410;52.532;13.336;2024-03-02T11:02:02;100237.59;;;21.85;50.54
16595;BME280;8410;52.532;13.336;2024-03-02T11:04:33;100247.63;;;21.31;50.72
16595;BME280;8410;52.532;13.336;2024-03-02T11:07:04;100246.59;;;20.91;52.52
16595;BME280;8410;52.532;13.336;2024-03-02T11:09:34;100242.78;;;21.66;50.70
16595;BME280;8410;52.532;13.336;2024-03-02T11:12:03;100237.16;;;21.96;50.95
16595;BME280;8410;52.532;13.336;2024-03-02T11:14:35;100238.41;;;21.87;50.23
16595;BME280;8410;52.532;13.336;2024-03-02T11:17:04;100239.97;;;21.91;50.66
16595;BME280;8410;52.532;13.336;2024-03-02T11:19:34;100239.75;;;21.75;50.76
16595;BME280;8410;52.532;13.336;2024-03-02T11:22:03;100234.47;;;21.97;50.54
16595;BME280;8410;52.532;13.336;2024-03-02T11:24:32;100226.16;;;22.08;50.22
16595;BME280;8410;52.532;13.336;2024-03-02T11:27:05;100227.28;;;22.02;50.39
16595;BME280;8410;52.532;13.336;2024-03-02T11:29:43;100223.13;;;21.97;50.03
16595;BME280;8410;52.532;13.336;2024-03-02T11:32:16;100235.28;;;21.57;51.32
16595;BME280;8410;52.532;13.336;2024-03-02T11:34:47;100233.44;;;21.59;49.41
16595;BME280;8410;52.532;13.336;2024-03-02T11:37:16;100233.09;;;21.68;49.56
16595;BME280;8410;52.532;13.336;2024-03-02T11:39:45;100239.31;;;21.44;49.86
16595;BME280;8410;52.532;13.336;2024-03-02T11:42:13;100231.41;;;21.45;49.20
16595;BME280;8410;52.532;13.336;2024-03-02T11:44:43;100238.66;;;21.39;50.79
16595;BME280;8410;52.532;13.336;2024-03-02T11:47:13;100238.34;;;21.01;50.43
16595;BME280;8410;52.532;13.336;2024-03-02T11:49:46;100238.00;;;20.88;51.21
16595;BME280;8410;52.532;13.336;2024-03-02T11:52:17;100240.84;;;20.33;52.25
16595;BME280;8410;52.532;13.336;2024-03-02T11:54:45;100242.06;;;20.48;52.13
16595;BME280;8410;52.532;13.336;2024-03-02T11:57:16;100237.97;;;21.33;50.71
16595;BME280;8410;52.532;13.336;2024-03-02T11:59:44;100238.56;;;21.18;51.21
16595;BME280;8410;52.532;13.336;2024-03-02T12:02:15;100236.75;;;21.85;50.38
16595;BME280;8410;52.532;13.336;2024-03-02T12:04:46;100226.09;;;22.49;49.04
16595;BME280;8410;52.532;13.336;2024-03-02T12:07:18;100229.94;;;22.80;47.95
16595;BME280;8410;52.532;13.336;2024-03-02T12:09:47;100237.84;;;22.21;49.73
16595;BME280;8410;52.532;13.336;2024-03-02T12:12:15;100234.22;;;23.01;47.91
16595;BME280;8410;52.532;13.336;2024-03-02T12:14:50;100237.16;;;22.75;48.66
16595;BME280;8410;52.532;13.336;2024-03-02T12:17:18;100231.44;;;22.85;48.34
16595;BME280;8410;52.532;13.336;2024-03-02T12:19:47;100232.66;;;22.59;48.16
16595;BME280;8410;52.532;13.336;2024-03-02T12:22:14;100222.84;;;22.82;48.29
16595;BME280;8410;52.532;13.336;2024-03-02T12:24:43;100227.13;;;22.65;48.64
16595;BME280;8410;52.532;13.336;2024-03-02T12:27:12;100225.97;;;22.52;48.92
16595;BME280;8410;52.532;13.336;2024-03-02T12:29:40;100211.06;;;22.90;48.34
16595;BME280;8410;52.532;13.336;2024-03-02T12:32:08;100209.53;;;23.05;48.44
16595;BME280;8410;52.532;13.336;2024-03-02T12:34:37;100211.41;;;22.26;48.19
16595;BME280;8410;52.532;13.336;2024-03-02T12:37:06;100214.91;;;22.27;49.07
16595;BME280;8410;52.532;13.336;2024-03-02T12:39:34;100217.63;;;22.03;49.60
16595;BME280;8410;52.532;13.336;2024-03-02T12:42:02;100214.47;;;22.74;48.85
16595;BME280;8410;52.532;13.336;2024-03-02T12:44:30;100211.66;;;22.78;48.18
16595;BME280;8410;52.532;13.336;2024-03-02T12:46:57;100213.50;;;22.57;48.00
16595;BME280;8410;52.532;13.336;2024-03-02T12:49:27;100216.59;;;21.87;48.83
16595;BME280;8410;52.532;13.336;2024-03-02T12:51:57;100214.34;;;22.77;48.22
16595;BME280;8410;52.532;13.336;2024-03-02T12:54:26;100208.19;;;23.33;47.58
16595;BME280;8410;52.532;13.336;2024-03-02T12:56:53;100214.94;;;23.02;47.37
16595;BME280;8410;52.532;13.336;2024-03-02T12:59:23;100205.09;;;23.25;46.95